sensor_id;sensor_type;location;lat;lon;timestamp;temperature;humidity
51867;DHT22;52862;52.504;13.480;2023-09-07T00:00:26;19.90;99.90
51867;DHT22;52862;52.504;13.480;2023-09-07T00:02:53;20.10;99.90
51867;DHT22;52862;52.504;13.480;2023-09-07T00:05:20;19.70;99.90
51867;DHT22;52862;52.504;13.480;2023-09-07T00:07:47;19.70;99.90
51867;DHT22;52862;52.504;13.480;2023-09-07T00:10:14;19.70;99.90
51867;DHT22;52862;52.504;13.480;2023-09-07T00:12:43;19.40;99.90
51867;DHT22;52862;52.504;13.480;2023-09-07T00:15:10;19.30;99.90
51867;DHT22;52862;52.504;13.480;2023-09-07T00:17:37;19.20;99.90
51867;DHT22;52862;52.504;13.480;2023-09-07T00:20:04;19.50;99.90
51867;DHT22;52862;52.504;13.480;2023-09-07T00:22:37;19.70;99.90
51867;DHT22;52862;52.504;13.480;2023-09-07T00:25:04;19.60;99.90
51867;DHT22;52862;52.504;13.480;2023-09-07T00:27:33;19.40;99.90
51867;DHT22;52862;52.504;13.480;2023-09-07T00:30:00;19.40;99.90
51867;DHT22;52862;52.504;13.480;2023-09-07T00:32:27;18.80;99.90
51867;DHT22;52862;52.504;13.480;2023-09-07T00:34:53;19.40;99.90
51867;DHT22;52862;52.504;13.480;2023-09-07T00:37:20;19.50;99.90
51867;DHT22;52862;52.504;13.480;2023-09-07T00:39:47;19.10;99.90
51867;DHT22;52862;52.504;13.480;2023-09-07T00:42:14;19.70;99.90
51867;DHT22;52862;52.504;13.480;2023-09-07T00:44:41;19.20;99.90
51867;DHT22;52862;52.504;13.480;2023-09-07T00:47:08;19.40;99.90
51867;DHT22;52862;52.504;13.480;2023-09-07T00:49:35;19.30;99.90
51867;DHT22;52862;52.504;13.480;2023-09-07T00:52:02;19.30;99.90
51867;DHT22;52862;52.504;13.480;2023-09-07T00:54:29;18.90;99.90
51867;DHT22;52862;52.504;13.480;2023-09-07T00:56:56;18.80;99.90
51867;DHT22;52862;52.504;13.480;2023-09-07T00:59:23;18.80;99.90
51867;DHT22;52862;52.504;13.480;2023-09-07T01:01:51;18.90;99.90
51867;DHT22;52862;52.504;13.480;2023-09-07T01:04:18;19.30;99.90
51867;DHT22;52862;52.504;13.480;2023-09-07T01:06:49;19.00;99.90
51867;DHT22;52862;52.504;13.480;2023-09-07T01:09:20;19.10;99.90
51867;DHT22;52862;52.504;13.480;2023-09-07T01:16:42;19.00;99.90
51867;DHT22;52862;52.504;13.480;2023-09-07T01:19:09;18.70;99.90
51867;DHT22;52862;52.504;13.480;2023-09-07T01:21:38;18.60;99.90
51867;DHT22;52862;52.504;13.480;2023-09-07T01:24:07;18.90;99.90
51867;DHT22;52862;52.504;13.480;2023-09-07T01:26:35;18.70;99.90
51867;DHT22;52862;52.504;13.480;2023-09-07T01:31:34;18.90;99.90
51867;DHT22;52862;52.504;13.480;2023-09-07T01:34:02;18.60;99.90
51867;DHT22;52862;52.504;13.480;2023-09-07T01:36:28;19.00;99.90
51867;DHT22;52862;52.504;13.480;2023-09-07T01:38:56;18.70;99.90
51867;DHT22;52862;52.504;13.480;2023-09-07T01:43:50;19.00;99.90
51867;DHT22;52862;52.504;13.480;2023-09-07T01:46:16;19.10;99.90
51867;DHT22;52862;52.504;13.480;2023-09-07T01:48:43;19.00;99.90
51867;DHT22;52862;52.504;13.480;2023-09-07T01:53:37;18.60;99.90
51867;DHT22;52862;52.504;13.480;2023-09-07T01:56:04;18.90;99.90
51867;DHT22;52862;52.504;13.480;2023-09-07T01:58:32;18.60;99.90
51867;DHT22;52862;52.504;13.480;2023-09-07T02:03:27;18.50;99.90
51867;DHT22;52862;52.504;13.480;2023-09-07T02:05:53;18.90;99.90
51867;DHT22;52862;52.504;13.480;2023-09-07T02:08:20;18.60;99.90
51867;DHT22;52862;52.504;13.480;2023-09-07T02:10:47;18.40;99.90
51867;DHT22;52862;52.504;13.480;2023-09-07T02:13:15;18.40;99.90
51867;DHT22;52862;52.504;13.480;2023-09-07T02:15:41;18.70;99.90
51867;DHT22;52862;52.504;13.480;2023-09-07T02:18:08;18.30;99.90
51867;DHT22;52862;52.504;13.480;2023-09-07T02:23:02;18.10;99.90
51867;DHT22;52862;52.504;13.480;2023-09-07T02:25:29;18.30;99.90
51867;DHT22;52862;52.504;13.480;2023-09-07T02:27:56;18.00;99.90
51867;DHT22;52862;52.504;13.480;2023-09-07T02:30:24;18.30;99.90
51867;DHT22;52862;52.504;13.480;2023-09-07T02:32:51;18.50;99.90
51867;DHT22;52862;52.504;13.480;2023-09-07T02:35:17;18.50;99.90
51867;DHT22;52862;52.504;13.480;2023-09-07T02:40:11;18.50;99.90
51867;DHT22;52862;52.504;13.480;2023-09-07T02:45:06;18.00;99.90
51867;DHT22;52862;52.504;13.480;2023-09-07T02:47:34;18.10;99.90
51867;DHT22;52862;52.504;13.480;2023-09-07T02:52:27;18.10;99.90
51867;DHT22;52862;52.504;13.480;2023-09-07T02:54:54;18.00;99.90
51867;DHT22;52862;52.504;13.480;2023-09-07T02:59:48;18.50;99.90
51867;DHT22;52862;52.504;13.480;2023-09-07T03:02:14;17.70;99.90
51867;DHT22;52862;52.504;13.480;2023-09-07T03:04:42;17.80;99.90
51867;DHT22;52862;52.504;13.480;2023-09-07T03:07:09;18.00;99.90
51867;DHT22;52862;52.504;13.480;2023-09-07T03:12:04;18.00;99.90
51867;DHT22;52862;52.504;13.480;2023-09-07T03:14:31;18.10;99.90
51867;DHT22;52862;52.504;13.480;2023-09-07T03:19:25;18.30;99.90
51867;DHT22;52862;52.504;13.480;2023-09-07T03:21:53;18.00;99.90
51867;DHT22;52862;52.504;13.480;2023-09-07T03:26:47;18.20;99.90
51867;DHT22;52862;52.504;13.480;2023-09-07T03:29:14;17.80;99.90
51867;DHT22;52862;52.504;13.480;2023-09-07T03:31:40;18.00;99.90
51867;DHT22;52862;52.504;13.480;2023-09-07T03:34:07;18.10;99.90
51867;DHT22;52862;52.504;13.480;2023-09-07T03:39:03;17.60;99.90
51867;DHT22;52862;52.504;13.480;2023-09-07T03:56:16;17.60;99.90
51867;DHT22;52862;52.504;13.480;2023-09-07T03:58:43;17.40;99.90
51867;DHT22;52862;52.504;13.480;2023-09-07T04:01:10;17.50;99.90
51867;DHT22;52862;52.504;13.480;2023-09-07T04:11:03;17.70;99.90
51867;DHT22;52862;52.504;13.480;2023-09-07T04:13:31;17.70;99.90
51867;DHT22;52862;52.504;13.480;2023-09-07T04:23:18;17.40;99.90
51867;DHT22;52862;52.504;13.480;2023-09-07T04:25:45;17.90;99.90
51867;DHT22;52862;52.504;13.480;2023-09-07T04:30:41;17.60;99.90
51867;DHT22;52862;52.504;13.480;2023-09-07T04:38:02;17.50;99.90
51867;DHT22;52862;52.504;13.480;2023-09-07T04:40:30;18.10;99.90
51867;DHT22;52862;52.504;13.480;2023-09-07T04:42:56;17.80;99.90
51867;DHT22;52862;52.504;13.480;2023-09-07T04:47:51;17.70;99.90
51867;DHT22;52862;52.504;13.480;2023-09-07T04:55:12;18.00;99.90
51867;DHT22;52862;52.504;13.480;2023-09-07T05:00:07;18.10;99.90
51867;DHT22;52862;52.504;13.480;2023-09-07T05:05:06;18.90;99.90
51867;DHT22;52862;52.504;13.480;2023-09-07T05:10:00;18.20;99.90
51867;DHT22;52862;52.504;13.480;2023-09-07T05:22:15;18.40;99.90
51867;DHT22;52862;52.504;13.480;2023-09-07T05:24:43;18.90;99.90
51867;DHT22;52862;52.504;13.480;2023-09-07T05:27:12;18.80;99.90
51867;DHT22;52862;52.504;13.480;2023-09-07T05:37:02;18.50;99.90
51867;DHT22;52862;52.504;13.480;2023-09-07T05:39:30;18.80;99.90
51867;DHT22;52862;52.504;13.480;2023-09-07T05:46:51;18.60;99.90
51867;DHT22;52862;52.504;13.480;2023-09-07T05:51:45;19.50;99.90
51867;DHT22;52862;52.504;13.480;2023-09-07T05:54:12;19.00;99.90
51867;DHT22;52862;52.504;13.480;2023-09-07T05:56:39;19.60;99.90
51867;DHT22;52862;52.504;13.480;2023-09-07T06:04:00;19.90;99.90
51867;DHT22;52862;52.504;13.480;2023-09-07T06:06:27;19.40;99.90
51867;DHT22;52862;52.504;13.480;2023-09-07T06:08:54;19.70;99.90
51867;DHT22;52862;52.504;13.480;2023-09-07T06:11:21;20.50;99.90
51867;DHT22;52862;52.504;13.480;2023-09-07T06:13:49;20.40;99.90
51867;DHT22;52862;52.504;13.480;2023-09-07T06:16:16;20.50;99.90
51867;DHT22;52862;52.504;13.480;2023-09-07T06:18:42;20.80;99.90
51867;DHT22;52862;52.504;13.480;2023-09-07T06:21:09;21.00;99.90
51867;DHT22;52862;52.504;13.480;2023-09-07T06:23:36;21.10;99.90
51867;DHT22;52862;52.504;13.480;2023-09-07T06:26:03;21.10;99.90
51867;DHT22;52862;52.504;13.480;2023-09-07T06:28:30;21.00;99.90
51867;DHT22;52862;52.504;13.480;2023-09-07T06:30:57;20.80;99.90
51867;DHT22;52862;52.504;13.480;2023-09-07T06:33:24;21.60;99.90
51867;DHT22;52862;52.504;13.480;2023-09-07T06:35:51;21.60;99.90
51867;DHT22;52862;52.504;13.480;2023-09-07T06:38:17;21.20;99.90
51867;DHT22;52862;52.504;13.480;2023-09-07T06:40:47;21.40;99.90
51867;DHT22;52862;52.504;13.480;2023-09-07T06:45:42;21.90;99.90
51867;DHT22;52862;52.504;13.480;2023-09-07T06:48:09;21.70;99.90
51867;DHT22;52862;52.504;13.480;2023-09-07T06:50:36;21.80;99.90
51867;DHT22;52862;52.504;13.480;2023-09-07T06:53:03;21.70;99.90
51867;DHT22;52862;52.504;13.480;2023-09-07T06:55:30;21.90;99.90
51867;DHT22;52862;52.504;13.480;2023-09-07T06:57:56;21.80;99.90
51867;DHT22;52862;52.504;13.480;2023-09-07T07:00:23;22.30;99.90
51867;DHT22;52862;52.504;13.480;2023-09-07T07:02:50;22.60;99.90
51867;DHT22;52862;52.504;13.480;2023-09-07T07:05:17;22.30;99.90
51867;DHT22;52862;52.504;13.480;2023-09-07T07:07:44;22.00;99.90
51867;DHT22;52862;52.504;13.480;2023-09-07T07:10:11;22.50;99.90
51867;DHT22;52862;52.504;13.480;2023-09-07T07:12:39;22.50;99.90
51867;DHT22;52862;52.504;13.480;2023-09-07T07:15:06;22.90;99.90
51867;DHT22;52862;52.504;13.480;2023-09-07T07:17:34;22.90;99.90
51867;DHT22;52862;52.504;13.480;2023-09-07T07:20:01;22.80;99.90
51867;DHT22;52862;52.504;13.480;2023-09-07T07:22:29;23.20;99.90
51867;DHT22;52862;52.504;13.480;2023-09-07T07:24:55;22.70;99.90
51867;DHT22;52862;52.504;13.480;2023-09-07T07:27:22;25.10;99.90
51867;DHT22;52862;52.504;13.480;2023-09-07T07:29:50;23.50;99.90
51867;DHT22;52862;52.504;13.480;2023-09-07T07:32:18;23.20;99.90
51867;DHT22;52862;52.504;13.480;2023-09-07T07:34:44;23.30;99.90
51867;DHT22;52862;52.504;13.480;2023-09-07T07:37:11;23.50;99.90
51867;DHT22;52862;52.504;13.480;2023-09-07T07:39:39;23.40;99.90
51867;DHT22;52862;52.504;13.480;2023-09-07T07:42:06;23.20;99.90
51867;DHT22;52862;52.504;13.480;2023-09-07T07:44:33;23.50;99.90
51867;DHT22;52862;52.504;13.480;2023-09-07T07:46:59;23.50;99.90
51867;DHT22;52862;52.504;13.480;2023-09-07T07:49:26;23.40;99.90
51867;DHT22;52862;52.504;13.480;2023-09-07T07:51:53;23.90;99.90
51867;DHT22;52862;52.504;13.480;2023-09-07T07:54:21;23.80;99.90
51867;DHT22;52862;52.504;13.480;2023-09-07T07:56:51;23.90;99.90
51867;DHT22;52862;52.504;13.480;2023-09-07T07:59:19;24.10;99.90
51867;DHT22;52862;52.504;13.480;2023-09-07T08:01:45;24.20;99.90
51867;DHT22;52862;52.504;13.480;2023-09-07T08:04:12;24.60;99.90
51867;DHT22;52862;52.504;13.480;2023-09-07T08:06:39;26.70;99.90
51867;DHT22;52862;52.504;13.480;2023-09-07T08:09:06;24.30;99.90
51867;DHT22;52862;52.504;13.480;2023-09-07T08:11:34;24.60;99.90
51867;DHT22;52862;52.504;13.480;2023-09-07T08:14:01;24.70;99.90
51867;DHT22;52862;52.504;13.480;2023-09-07T08:16:28;24.90;99.90
51867;DHT22;52862;52.504;13.480;2023-09-07T08:18:55;24.90;99.90
51867;DHT22;52862;52.504;13.480;2023-09-07T08:21:22;25.00;99.90
51867;DHT22;52862;52.504;13.480;2023-09-07T08:23:49;24.90;99.90
51867;DHT22;52862;52.504;13.480;2023-09-07T08:26:15;24.90;99.90
51867;DHT22;52862;52.504;13.480;2023-09-07T08:28:43;25.30;99.90
51867;DHT22;52862;52.504;13.480;2023-09-07T08:31:13;25.30;99.90
51867;DHT22;52862;52.504;13.480;2023-09-07T08:33:47;25.30;99.90
51867;DHT22;52862;52.504;13.480;2023-09-07T08:36:16;25.30;99.90
51867;DHT22;52862;52.504;13.480;2023-09-07T08:38:43;25.20;99.90
51867;DHT22;52862;52.504;13.480;2023-09-07T08:41:10;25.50;99.90
51867;DHT22;52862;52.504;13.480;2023-09-07T08:43:44;25.50;99.90
51867;DHT22;52862;52.504;13.480;2023-09-07T08:46:14;25.70;99.90
51867;DHT22;52862;52.504;13.480;2023-09-07T08:48:42;25.70;99.90
51867;DHT22;52862;52.504;13.480;2023-09-07T08:51:10;25.20;99.90
51867;DHT22;52862;52.504;13.480;2023-09-07T08:53:39;25.80;99.90
51867;DHT22;52862;52.504;13.480;2023-09-07T08:56:07;25.40;99.90
51867;DHT22;52862;52.504;13.480;2023-09-07T08:58:36;25.90;99.90
51867;DHT22;52862;52.504;13.480;2023-09-07T09:01:02;26.00;99.90
51867;DHT22;52862;52.504;13.480;2023-09-07T09:03:33;26.00;99.90
51867;DHT22;52862;52.504;13.480;2023-09-07T09:06:01;26.20;99.90
51867;DHT22;52862;52.504;13.480;2023-09-07T09:08:28;26.20;99.90
51867;DHT22;52862;52.504;13.480;2023-09-07T09:10:59;26.20;99.90
51867;DHT22;52862;52.504;13.480;2023-09-07T09:13:30;26.20;99.90
51867;DHT22;52862;52.504;13.480;2023-09-07T09:15:59;26.20;99.90
51867;DHT22;52862;52.504;13.480;2023-09-07T09:18:27;26.30;99.90
51867;DHT22;52862;52.504;13.480;2023-09-07T09:20:55;26.40;99.90
51867;DHT22;52862;52.504;13.480;2023-09-07T09:23:22;26.30;99.90
51867;DHT22;52862;52.504;13.480;2023-09-07T09:25:49;26.30;99.90
51867;DHT22;52862;52.504;13.480;2023-09-07T09:28:15;26.40;99.90
51867;DHT22;52862;52.504;13.480;2023-09-07T09:30:42;26.60;99.90
51867;DHT22;52862;52.504;13.480;2023-09-07T09:33:09;26.70;99.90
51867;DHT22;52862;52.504;13.480;2023-09-07T09:35:37;26.80;99.90
51867;DHT22;52862;52.504;13.480;2023-09-07T09:38:05;26.70;99.90
51867;DHT22;52862;52.504;13.480;2023-09-07T09:40:33;26.80;99.90
51867;DHT22;52862;52.504;13.480;2023-09-07T09:43:02;26.80;99.90
51867;DHT22;52862;52.504;13.480;2023-09-07T09:45:31;26.80;99.90
51867;DHT22;52862;52.504;13.480;2023-09-07T09:47:58;26.90;99.90
51867;DHT22;52862;52.504;13.480;2023-09-07T09:50:27;26.80;99.90
51867;DHT22;52862;52.504;13.480;2023-09-07T09:52:54;26.90;99.90
51867;DHT22;52862;52.504;13.480;2023-09-07T09:55:22;27.30;99.90
51867;DHT22;52862;52.504;13.480;2023-09-07T09:57:48;26.90;99.90
51867;DHT22;52862;52.504;13.480;2023-09-07T10:00:16;27.00;99.90
51867;DHT22;52862;52.504;13.480;2023-09-07T10:02:59;26.90;99.90
51867;DHT22;52862;52.504;13.480;2023-09-07T10:05:27;27.00;99.90
51867;DHT22;52862;52.504;13.480;2023-09-07T10:08:00;26.90;99.90
51867;DHT22;52862;52.504;13.480;2023-09-07T10:10:33;26.90;99.90
51867;DHT22;52862;52.504;13.480;2023-09-07T10:13:00;26.80;99.90
51867;DHT22;52862;52.504;13.480;2023-09-07T10:15:28;27.10;99.90
51867;DHT22;52862;52.504;13.480;2023-09-07T10:18:09;27.00;99.90
51867;DHT22;52862;52.504;13.480;2023-09-07T10:20:54;27.10;99.90
51867;DHT22;52862;52.504;13.480;2023-09-07T10:23:22;27.40;99.90
51867;DHT22;52862;52.504;13.480;2023-09-07T10:25:52;27.30;99.90
51867;DHT22;52862;52.504;13.480;2023-09-07T10:28:20;27.30;99.90
51867;DHT22;52862;52.504;13.480;2023-09-07T10:31:01;27.20;99.90
51867;DHT22;52862;52.504;13.480;2023-09-07T10:33:29;27.30;99.90
51867;DHT22;52862;52.504;13.480;2023-09-07T10:35:57;27.50;99.90
51867;DHT22;52862;52.504;13.480;2023-09-07T10:38:24;27.40;99.20
51867;DHT22;52862;52.504;13.480;2023-09-07T10:40:56;27.40;98.20
51867;DHT22;52862;52.504;13.480;2023-09-07T10:43:26;27.50;98.40
51867;DHT22;52862;52.504;13.480;2023-09-07T10:45:54;27.40;98.00
51867;DHT22;52862;52.504;13.480;2023-09-07T10:48:21;27.40;98.70
51867;DHT22;52862;52.504;13.480;2023-09-07T10:50:48;27.20;97.80
51867;DHT22;52862;52.504;13.480;2023-09-07T10:53:25;27.50;97.60
51867;DHT22;52862;52.504;13.480;2023-09-07T10:55:52;27.50;97.60
51867;DHT22;52862;52.504;13.480;2023-09-07T10:58:25;27.60;97.80
51867;DHT22;52862;52.504;13.480;2023-09-07T11:00:57;27.70;97.80
51867;DHT22;52862;52.504;13.480;2023-09-07T11:03:27;27.70;98.00
51867;DHT22;52862;52.504;13.480;2023-09-07T11:05:56;27.60;97.80
51867;DHT22;52862;52.504;13.480;2023-09-07T11:08:25;27.60;98.40
51867;DHT22;52862;52.504;13.480;2023-09-07T11:10:52;27.70;97.80
51867;DHT22;52862;52.504;13.480;2023-09-07T11:13:19;27.60;97.60
51867;DHT22;52862;52.504;13.480;2023-09-07T11:15:46;27.60;98.00
51867;DHT22;52862;52.504;13.480;2023-09-07T11:18:13;27.70;97.00
51867;DHT22;52862;52.504;13.480;2023-09-07T11:20:40;27.70;97.00
51867;DHT22;52862;52.504;13.480;2023-09-07T11:23:08;27.90;96.80
51867;DHT22;52862;52.504;13.480;2023-09-07T11:25:35;28.00;96.60
51867;DHT22;52862;52.504;13.480;2023-09-07T11:28:03;28.20;96.70
51867;DHT22;52862;52.504;13.480;2023-09-07T11:30:30;28.30;96.00
51867;DHT22;52862;52.504;13.480;2023-09-07T11:33:02;28.30;95.90
51867;DHT22;52862;52.504;13.480;2023-09-07T11:35:29;28.30;95.70
51867;DHT22;52862;52.504;13.480;2023-09-07T11:37:56;28.20;96.00
51867;DHT22;52862;52.504;13.480;2023-09-07T11:40:22;28.20;96.00
51867;DHT22;52862;52.504;13.480;2023-09-07T11:42:52;28.30;95.90
51867;DHT22;52862;52.504;13.480;2023-09-07T11:45:19;28.50;96.30
51867;DHT22;52862;52.504;13.480;2023-09-07T11:47:46;28.50;95.60
51867;DHT22;52862;52.504;13.480;2023-09-07T11:50:16;28.50;95.50
51867;DHT22;52862;52.504;13.480;2023-09-07T11:52:43;28.70;95.40
51867;DHT22;52862;52.504;13.480;2023-09-07T11:55:10;28.60;95.30
51867;DHT22;52862;52.504;13.480;2023-09-07T11:57:37;28.80;95.00
51867;DHT22;52862;52.504;13.480;2023-09-07T12:00:05;28.60;95.00
51867;DHT22;52862;52.504;13.480;2023-09-07T12:02:32;29.90;95.60
51867;DHT22;52862;52.504;13.480;2023-09-07T12:04:59;29.00;95.10
51867;DHT22;52862;52.504;13.480;2023-09-07T12:07:27;29.00;94.80
51867;DHT22;52862;52.504;13.480;2023-09-07T12:09:54;29.10;95.30
51867;DHT22;52862;52.504;13.480;2023-09-07T12:12:23;29.20;95.30
51867;DHT22;52862;52.504;13.480;2023-09-07T12:14:50;29.50;94.70
51867;DHT22;52862;52.504;13.480;2023-09-07T12:17:17;29.60;93.50
51867;DHT22;52862;52.504;13.480;2023-09-07T12:19:45;29.90;93.40
51867;DHT22;52862;52.504;13.480;2023-09-07T12:22:12;29.70;92.60
51867;DHT22;52862;52.504;13.480;2023-09-07T12:24:40;29.90;93.10
51867;DHT22;52862;52.504;13.480;2023-09-07T12:27:06;30.50;96.50
51867;DHT22;52862;52.504;13.480;2023-09-07T12:29:33;30.10;92.30
51867;DHT22;52862;52.504;13.480;2023-09-07T12:32:00;30.20;92.10
51867;DHT22;52862;52.504;13.480;2023-09-07T12:34:27;30.20;91.60
51867;DHT22;52862;52.504;13.480;2023-09-07T12:36:58;30.30;90.80
51867;DHT22;52862;52.504;13.480;2023-09-07T12:39:25;30.40;91.80
51867;DHT22;52862;52.504;13.480;2023-09-07T12:41:52;30.40;92.10
51867;DHT22;52862;52.504;13.480;2023-09-07T12:44:19;30.70;91.90
51867;DHT22;52862;52.504;13.480;2023-09-07T12:46:47;30.80;92.00
51867;DHT22;52862;52.504;13.480;2023-09-07T12:49:13;30.70;91.20
51867;DHT22;52862;52.504;13.480;2023-09-07T12:51:41;30.60;91.50
51867;DHT22;52862;52.504;13.480;2023-09-07T12:54:08;30.90;91.90
51867;DHT22;52862;52.504;13.480;2023-09-07T12:56:35;31.00;91.80
51867;DHT22;52862;52.504;13.480;2023-09-07T12:59:02;32.40;91.90
51867;DHT22;52862;52.504;13.480;2023-09-07T13:01:29;31.00;91.80
51867;DHT22;52862;52.504;13.480;2023-09-07T13:03:57;31.10;91.80
51867;DHT22;52862;52.504;13.480;2023-09-07T13:06:24;30.90;91.10
51867;DHT22;52862;52.504;13.480;2023-09-07T13:08:51;31.10;91.10
51867;DHT22;52862;52.504;13.480;2023-09-07T13:11:18;31.30;91.00
51867;DHT22;52862;52.504;13.480;2023-09-07T13:13:44;31.70;90.70
51867;DHT22;52862;52.504;13.480;2023-09-07T13:16:12;31.70;90.60
51867;DHT22;52862;52.504;13.480;2023-09-07T13:18:39;31.90;90.30
51867;DHT22;52862;52.504;13.480;2023-09-07T13:21:06;31.90;89.30
51867;DHT22;52862;52.504;13.480;2023-09-07T13:23:33;31.90;89.60
51867;DHT22;52862;52.504;13.480;2023-09-07T13:26:00;32.10;89.50
51867;DHT22;52862;52.504;13.480;2023-09-07T13:28:27;32.20;88.10
51867;DHT22;52862;52.504;13.480;2023-09-07T13:30:57;32.30;88.40
51867;DHT22;52862;52.504;13.480;2023-09-07T13:33:24;32.30;86.80
51867;DHT22;52862;52.504;13.480;2023-09-07T13:35:51;32.30;87.50
51867;DHT22;52862;52.504;13.480;2023-09-07T13:38:18;32.70;87.30
51867;DHT22;52862;52.504;13.480;2023-09-07T13:40:44;32.60;85.90
51867;DHT22;52862;52.504;13.480;2023-09-07T13:43:11;32.60;84.50
51867;DHT22;52862;52.504;13.480;2023-09-07T13:45:38;32.70;84.30
51867;DHT22;52862;52.504;13.480;2023-09-07T13:48:05;32.30;85.40
51867;DHT22;52862;52.504;13.480;2023-09-07T13:50:33;33.10;84.60
51867;DHT22;52862;52.504;13.480;2023-09-07T13:53:02;36.00;79.30
51867;DHT22;52862;52.504;13.480;2023-09-07T13:55:29;38.80;74.30
51867;DHT22;52862;52.504;13.480;2023-09-07T13:57:56;41.10;65.90
51867;DHT22;52862;52.504;13.480;2023-09-07T14:00:23;41.70;61.30
51867;DHT22;52862;52.504;13.480;2023-09-07T14:02:49;41.00;58.50
51867;DHT22;52862;52.504;13.480;2023-09-07T14:05:16;40.80;59.20
51867;DHT22;52862;52.504;13.480;2023-09-07T14:07:44;40.00;59.60
51867;DHT22;52862;52.504;13.480;2023-09-07T14:10:10;39.70;59.20
51867;DHT22;52862;52.504;13.480;2023-09-07T14:12:37;39.00;60.10
51867;DHT22;52862;52.504;13.480;2023-09-07T14:15:05;38.50;60.00
51867;DHT22;52862;52.504;13.480;2023-09-07T14:17:31;37.90;60.70
51867;DHT22;52862;52.504;13.480;2023-09-07T14:19:58;36.70;62.70
51867;DHT22;52862;52.504;13.480;2023-09-07T14:22:25;35.30;65.70
51867;DHT22;52862;52.504;13.480;2023-09-07T14:24:52;33.90;68.40
51867;DHT22;52862;52.504;13.480;2023-09-07T14:27:19;32.30;81.50
51867;DHT22;52862;52.504;13.480;2023-09-07T14:29:46;32.10;72.50
51867;DHT22;52862;52.504;13.480;2023-09-07T14:32:12;32.10;72.00
51867;DHT22;52862;52.504;13.480;2023-09-07T14:34:39;32.10;73.90
51867;DHT22;52862;52.504;13.480;2023-09-07T14:37:06;32.10;72.90
51867;DHT22;52862;52.504;13.480;2023-09-07T14:39:33;32.20;73.70
51867;DHT22;52862;52.504;13.480;2023-09-07T14:42:02;33.20;72.30
51867;DHT22;52862;52.504;13.480;2023-09-07T14:44:32;34.10;68.90
51867;DHT22;52862;52.504;13.480;2023-09-07T14:46:58;34.30;69.50
51867;DHT22;52862;52.504;13.480;2023-09-07T14:49:25;33.40;70.80
51867;DHT22;52862;52.504;13.480;2023-09-07T14:51:52;33.00;70.90
51867;DHT22;52862;52.504;13.480;2023-09-07T14:54:19;32.70;71.90
51867;DHT22;52862;52.504;13.480;2023-09-07T14:56:46;32.00;73.30
51867;DHT22;52862;52.504;13.480;2023-09-07T14:59:13;31.20;74.00
51867;DHT22;52862;52.504;13.480;2023-09-07T15:01:40;30.70;75.90
51867;DHT22;52862;52.504;13.480;2023-09-07T15:04:07;30.30;76.30
51867;DHT22;52862;52.504;13.480;2023-09-07T15:06:34;30.20;77.30
51867;DHT22;52862;52.504;13.480;2023-09-07T15:09:01;31.10;75.80
51867;DHT22;52862;52.504;13.480;2023-09-07T15:11:27;33.30;70.70
51867;DHT22;52862;52.504;13.480;2023-09-07T15:13:54;34.30;67.60
51867;DHT22;52862;52.504;13.480;2023-09-07T15:16:22;34.20;67.10
51867;DHT22;52862;52.504;13.480;2023-09-07T15:18:49;33.10;69.10
51867;DHT22;52862;52.504;13.480;2023-09-07T15:21:17;31.90;71.40
51867;DHT22;52862;52.504;13.480;2023-09-07T15:23:44;30.90;74.50
51867;DHT22;52862;52.504;13.480;2023-09-07T15:26:11;30.20;77.70
51867;DHT22;52862;52.504;13.480;2023-09-07T15:28:38;29.50;78.10
51867;DHT22;52862;52.504;13.480;2023-09-07T15:31:06;29.00;90.00
51867;DHT22;52862;52.504;13.480;2023-09-07T15:33:34;28.90;79.70
51867;DHT22;52862;52.504;13.480;2023-09-07T15:36:01;28.80;90.40
51867;DHT22;52862;52.504;13.480;2023-09-07T15:38:28;28.50;80.60
51867;DHT22;52862;52.504;13.480;2023-09-07T15:40:56;28.90;90.80
51867;DHT22;52862;52.504;13.480;2023-09-07T15:43:23;28.40;90.70
51867;DHT22;52862;52.504;13.480;2023-09-07T15:45:50;28.20;81.80
51867;DHT22;52862;52.504;13.480;2023-09-07T15:48:17;28.30;81.20
51867;DHT22;52862;52.504;13.480;2023-09-07T15:50:44;28.10;81.20
51867;DHT22;52862;52.504;13.480;2023-09-07T15:53:12;27.90;81.50
51867;DHT22;52862;52.504;13.480;2023-09-07T15:55:39;26.30;80.80
51867;DHT22;52862;52.504;13.480;2023-09-07T15:58:08;27.80;91.30
51867;DHT22;52862;52.504;13.480;2023-09-07T16:00:35;27.70;91.70
51867;DHT22;52862;52.504;13.480;2023-09-07T16:03:03;27.70;83.10
51867;DHT22;52862;52.504;13.480;2023-09-07T16:05:30;28.00;91.80
51867;DHT22;52862;52.504;13.480;2023-09-07T16:07:58;28.00;91.50
51867;DHT22;52862;52.504;13.480;2023-09-07T16:10:25;27.60;83.10
51867;DHT22;52862;52.504;13.480;2023-09-07T16:12:51;27.50;83.20
51867;DHT22;52862;52.504;13.480;2023-09-07T16:15:18;27.50;82.60
51867;DHT22;52862;52.504;13.480;2023-09-07T16:17:45;27.70;91.90
51867;DHT22;52862;52.504;13.480;2023-09-07T16:20:12;26.90;91.50
51867;DHT22;52862;52.504;13.480;2023-09-07T16:22:38;27.10;91.90
51867;DHT22;52862;52.504;13.480;2023-09-07T16:25:07;27.40;92.50
51867;DHT22;52862;52.504;13.480;2023-09-07T16:27:33;27.50;92.60
51867;DHT22;52862;52.504;13.480;2023-09-07T16:30:05;26.90;92.40
51867;DHT22;52862;52.504;13.480;2023-09-07T16:32:33;27.00;85.50
51867;DHT22;52862;52.504;13.480;2023-09-07T16:35:00;27.00;86.10
51867;DHT22;52862;52.504;13.480;2023-09-07T16:37:27;29.00;88.60
51867;DHT22;52862;52.504;13.480;2023-09-07T16:39:54;27.20;93.80
51867;DHT22;52862;52.504;13.480;2023-09-07T16:42:21;26.90;93.80
51867;DHT22;52862;52.504;13.480;2023-09-07T16:44:50;26.70;93.80
51867;DHT22;52862;52.504;13.480;2023-09-07T16:47:18;26.80;94.20
51867;DHT22;52862;52.504;13.480;2023-09-07T16:49:45;26.20;94.00
51867;DHT22;52862;52.504;13.480;2023-09-07T16:52:12;26.30;94.10
51867;DHT22;52862;52.504;13.480;2023-09-07T16:54:39;26.00;94.50
51867;DHT22;52862;52.504;13.480;2023-09-07T16:57:06;26.20;94.40
51867;DHT22;52862;52.504;13.480;2023-09-07T16:59:36;26.00;94.50
51867;DHT22;52862;52.504;13.480;2023-09-07T17:02:22;26.00;95.10
51867;DHT22;52862;52.504;13.480;2023-09-07T17:04:49;26.00;95.20
51867;DHT22;52862;52.504;13.480;2023-09-07T17:07:16;26.10;90.60
51867;DHT22;52862;52.504;13.480;2023-09-07T17:09:42;26.30;95.60
51867;DHT22;52862;52.504;13.480;2023-09-07T17:12:09;26.00;95.90
51867;DHT22;52862;52.504;13.480;2023-09-07T17:14:36;25.80;96.00
51867;DHT22;52862;52.504;13.480;2023-09-07T17:17:03;25.90;91.40